sensor_id;sensor_type;location;lat;lon;timestamp;pressure;altitude;pressure_sealevel;temperature;humidity
7614;BME280;3848;42.016;23.098;2023-06-10T00:00:48;96620.03;;;20.99;100.00
7614;BME280;3848;42.016;23.098;2023-06-10T00:03:16;96621.31;;;20.92;100.00
7614;BME280;3848;42.016;23.098;2023-06-10T00:05:43;96619.16;;;20.85;100.00
7614;BME280;3848;42.016;23.098;2023-06-10T00:08:10;96625.16;;;20.85;100.00
7614;BME280;3848;42.016;23.098;2023-06-10T00:10:38;96603.72;;;20.69;100.00
7614;BME280;3848;42.016;23.098;2023-06-10T00:13:06;96618.50;;;20.81;100.00
7614;BME280;3848;42.016;23.098;2023-06-10T00:15:34;96615.25;;;20.78;100.00
7614;BME280;3848;42.016;23.098;2023-06-10T00:18:03;96627.44;;;20.76;100.00
7614;BME280;3848;42.016;23.098;2023-06-10T00:20:31;96624.38;;;20.69;100.00
7614;BME280;3848;42.016;23.098;2023-06-10T00:22:58;96621.59;;;20.72;100.00
7614;BME280;3848;42.016;23.098;2023-06-10T00:25:26;96617.81;;;20.63;100.00
7614;BME280;3848;42.016;23.098;2023-06-10T00:27:53;96623.88;;;20.62;100.00
7614;BME280;3848;42.016;23.098;2023-06-10T00:30:20;96627.53;;;20.58;100.00
7614;BME280;3848;42.016;23.098;2023-06-10T00:32:47;96625.31;;;20.52;100.00
7614;BME280;3848;42.016;23.098;2023-06-10T00:35:15;96622.81;;;20.51;100.00
7614;BME280;3848;42.016;23.098;2023-06-10T00:37:42;96631.47;;;20.50;100.00
7614;BME280;3848;42.016;23.098;2023-06-10T00:40:09;96622.50;;;20.41;100.00
7614;BME280;3848;42.016;23.098;2023-06-10T00:42:36;96627.66;;;20.41;100.00
7614;BME280;3848;42.016;23.098;2023-06-10T00:45:04;96630.28;;;20.39;100.00
7614;BME280;3848;42.016;23.098;2023-06-10T00:47:31;96630.78;;;20.30;100.00
7614;BME280;3848;42.016;23.098;2023-06-10T00:49:58;96628.66;;;20.23;100.00
7614;BME280;3848;42.016;23.098;2023-06-10T00:52:28;96616.88;;;20.17;100.00
7614;BME280;3848;42.016;23.098;2023-06-10T00:54:55;96623.97;;;20.14;100.00
7614;BME280;3848;42.016;23.098;2023-06-10T00:57:22;96627.63;;;20.09;100.00
7614;BME280;3848;42.016;23.098;2023-06-10T00:59:50;96624.47;;;20.04;100.00
7614;BME280;3848;42.016;23.098;2023-06-10T01:02:17;96628.72;;;20.05;100.00
7614;BME280;3848;42.016;23.098;2023-06-10T01:04:44;96626.63;;;19.96;100.00
7614;BME280;3848;42.016;23.098;2023-06-10T01:07:17;96606.81;;;19.81;100.00
7614;BME280;3848;42.016;23.098;2023-06-10T01:09:54;96637.78;;;19.81;100.00
7614;BME280;3848;42.016;23.098;2023-06-10T01:12:29;96632.69;;;19.79;100.00
7614;BME280;3848;42.016;23.098;2023-06-10T01:14:58;96648.38;;;19.75;100.00
7614;BME280;3848;42.016;23.098;2023-06-10T01:17:26;96636.06;;;19.64;100.00
7614;BME280;3848;42.016;23.098;2023-06-10T01:19:54;96631.25;;;19.58;100.00
7614;BME280;3848;42.016;23.098;2023-06-10T01:22:23;96633.66;;;19.61;100.00
7614;BME280;3848;42.016;23.098;2023-06-10T01:24:52;96635.91;;;19.67;100.00
7614;BME280;3848;42.016;23.098;2023-06-10T01:27:21;96624.84;;;19.65;100.00
7614;BME280;3848;42.016;23.098;2023-06-10T01:29:54;96617.78;;;19.69;100.00
7614;BME280;3848;42.016;23.098;2023-06-10T01:32:32;96621.09;;;19.71;100.00
7614;BME280;3848;42.016;23.098;2023-06-10T01:35:01;96633.06;;;19.72;100.00
7614;BME280;3848;42.016;23.098;2023-06-10T01:37:31;96637.06;;;19.62;100.00
7614;BME280;3848;42.016;23.098;2023-06-10T01:39:59;96637.22;;;19.59;100.00
7614;BME280;3848;42.016;23.098;2023-06-10T01:42:27;96634.78;;;19.56;100.00
7614;BME280;3848;42.016;23.098;2023-06-10T01:44:54;96634.56;;;19.60;100.00
7614;BME280;3848;42.016;23.098;2023-06-10T01:47:21;96645.53;;;19.64;100.00
7614;BME280;3848;42.016;23.098;2023-06-10T01:49:48;96638.88;;;19.60;100.00
7614;BME280;3848;42.016;23.098;2023-06-10T01:52:15;96642.66;;;19.53;100.00
7614;BME280;3848;42.016;23.098;2023-06-10T01:54:43;96640.16;;;19.51;100.00
7614;BME280;3848;42.016;23.098;2023-06-10T01:57:10;96635.06;;;19.49;100.00
7614;BME280;3848;42.016;23.098;2023-06-10T01:59:37;96642.72;;;19.51;100.00
7614;BME280;3848;42.016;23.098;2023-06-10T02:02:04;96641.91;;;19.50;100.00
7614;BME280;3848;42.016;23.098;2023-06-10T02:04:31;96653.19;;;19.48;100.00
7614;BME280;3848;42.016;23.098;2023-06-10T02:06:58;96647.97;;;19.49;100.00
7614;BME280;3848;42.016;23.098;2023-06-10T02:09:29;96633.75;;;19.42;100.00
7614;BME280;3848;42.016;23.098;2023-06-10T02:11:58;96653.03;;;19.51;100.00
7614;BME280;3848;42.016;23.098;2023-06-10T02:14:24;96648.97;;;19.47;100.00
7614;BME280;3848;42.016;23.098;2023-06-10T02:16:51;96652.78;;;19.40;100.00
7614;BME280;3848;42.016;23.098;2023-06-10T02:19:21;96613.16;;;19.08;100.00
7614;BME280;3848;42.016;23.098;2023-06-10T02:21:48;96656.19;;;19.23;100.00
7614;BME280;3848;42.016;23.098;2023-06-10T02:24:16;96655.13;;;19.10;100.00
7614;BME280;3848;42.016;23.098;2023-06-10T02:26:43;96659.97;;;18.99;100.00
7614;BME280;3848;42.016;23.098;2023-06-10T02:29:11;96662.84;;;18.93;100.00
7614;BME280;3848;42.016;23.098;2023-06-10T02:31:38;96668.53;;;18.82;100.00
7614;BME280;3848;42.016;23.098;2023-06-10T02:34:06;96666.69;;;18.67;100.00
7614;BME280;3848;42.016;23.098;2023-06-10T02:36:33;96665.16;;;18.63;100.00
7614;BME280;3848;42.016;23.098;2023-06-10T02:39:01;96677.56;;;18.53;100.00
7614;BME280;3848;42.016;23.098;2023-06-10T02:41:28;96673.78;;;18.43;100.00
7614;BME280;3848;42.016;23.098;2023-06-10T02:43:55;96661.28;;;18.35;100.00
7614;BME280;3848;42.016;23.098;2023-06-10T02:46:23;96674.00;;;18.38;100.00
7614;BME280;3848;42.016;23.098;2023-06-10T02:48:50;96666.50;;;18.34;100.00
7614;BME280;3848;42.016;23.098;2023-06-10T02:51:17;96676.84;;;18.32;100.00
7614;BME280;3848;42.016;23.098;2023-06-10T02:53:44;96657.53;;;18.23;100.00
7614;BME280;3848;42.016;23.098;2023-06-10T02:56:10;96675.31;;;18.28;100.00
7614;BME280;3848;42.016;23.098;2023-06-10T02:58:38;96672.06;;;18.24;100.00
7614;BME280;3848;42.016;23.098;2023-06-10T03:01:04;96678.72;;;18.28;100.00
7614;BME280;3848;42.016;23.098;2023-06-10T03:03:33;96670.00;;;18.33;100.00
7614;BME280;3848;42.016;23.098;2023-06-10T03:06:00;96667.28;;;18.36;100.00
7614;BME280;3848;42.016;23.098;2023-06-10T03:08:28;96675.66;;;18.39;100.00
7614;BME280;3848;42.016;23.098;2023-06-10T03:10:55;96667.41;;;18.33;100.00
7614;BME280;3848;42.016;23.098;2023-06-10T03:13:22;96672.69;;;18.29;100.00
7614;BME280;3848;42.016;23.098;2023-06-10T03:15:50;96664.19;;;18.27;100.00
7614;BME280;3848;42.016;23.098;2023-06-10T03:18:16;96673.50;;;18.30;100.00
7614;BME280;3848;42.016;23.098;2023-06-10T03:20:44;96672.59;;;18.31;100.00
7614;BME280;3848;42.016;23.098;2023-06-10T03:23:11;96685.69;;;18.26;100.00
7614;BME280;3848;42.016;23.098;2023-06-10T03:25:38;96621.53;;;17.86;100.00
7614;BME280;3848;42.016;23.098;2023-06-10T03:28:05;96677.34;;;18.21;100.00
7614;BME280;3848;42.016;23.098;2023-06-10T03:30:31;96671.59;;;18.16;100.00
7614;BME280;3848;42.016;23.098;2023-06-10T03:32:58;96674.09;;;18.18;100.00
7614;BME280;3848;42.016;23.098;2023-06-10T03:35:26;96681.03;;;18.16;100.00
7614;BME280;3848;42.016;23.098;2023-06-10T03:37:54;96681.81;;;18.18;100.00
7614;BME280;3848;42.016;23.098;2023-06-10T03:40:21;96673.25;;;18.17;100.00
7614;BME280;3848;42.016;23.098;2023-06-10T03:42:47;96679.91;;;18.21;100.00
7614;BME280;3848;42.016;23.098;2023-06-10T03:45:14;96658.94;;;18.12;100.00
7614;BME280;3848;42.016;23.098;2023-06-10T03:47:41;96678.53;;;18.14;100.00
7614;BME280;3848;42.016;23.098;2023-06-10T03:50:10;96667.97;;;18.02;100.00
7614;BME280;3848;42.016;23.098;2023-06-10T03:52:37;96674.09;;;17.99;100.00
7614;BME280;3848;42.016;23.098;2023-06-10T03:55:07;96681.88;;;17.97;100.00
7614;BME280;3848;42.016;23.098;2023-06-10T03:57:34;96670.25;;;17.89;100.00
7614;BME280;3848;42.016;23.098;2023-06-10T04:00:01;96671.03;;;17.91;100.00
7614;BME280;3848;42.016;23.098;2023-06-10T04:02:31;96675.19;;;17.93;100.00
7614;BME280;3848;42.016;23.098;2023-06-10T04:05:00;96672.63;;;17.93;100.00
7614;BME280;3848;42.016;23.098;2023-06-10T04:07:27;96670.16;;;17.90;100.00
7614;BME280;3848;42.016;23.098;2023-06-10T04:09:54;96662.53;;;17.89;100.00
7614;BME280;3848;42.016;23.098;2023-06-10T04:12:22;96666.50;;;17.96;100.00
7614;BME280;3848;42.016;23.098;2023-06-10T04:14:49;96673.78;;;18.05;100.00
7614;BME280;3848;42.016;23.098;2023-06-10T04:17:16;96673.41;;;18.14;100.00
7614;BME280;3848;42.016;23.098;2023-06-10T04:19:43;96672.97;;;18.23;100.00
7614;BME280;3848;42.016;23.098;2023-06-10T04:22:10;96678.72;;;18.28;100.00
7614;BME280;3848;42.016;23.098;2023-06-10T04:24:37;96678.31;;;18.38;100.00
7614;BME280;3848;42.016;23.098;2023-06-10T04:27:05;96678.16;;;18.41;100.00
7614;BME280;3848;42.016;23.098;2023-06-10T04:29:33;96683.63;;;18.52;100.00
7614;BME280;3848;42.016;23.098;2023-06-10T04:32:00;96678.97;;;18.60;100.00
7614;BME280;3848;42.016;23.098;2023-06-10T04:34:27;96677.88;;;18.66;100.00
7614;BME280;3848;42.016;23.098;2023-06-10T04:36:54;96671.66;;;18.70;100.00
7614;BME280;3848;42.016;23.098;2023-06-10T04:39:21;96676.41;;;18.79;100.00
7614;BME280;3848;42.016;23.098;2023-06-10T04:41:48;96672.53;;;18.87;100.00
7614;BME280;3848;42.016;23.098;2023-06-10T04:44:15;96669.66;;;18.94;100.00
7614;BME280;3848;42.016;23.098;2023-06-10T04:46:43;96671.94;;;19.00;100.00
7614;BME280;3848;42.016;23.098;2023-06-10T04:49:10;96669.97;;;19.05;100.00
7614;BME280;3848;42.016;23.098;2023-06-10T04:51:39;96669.75;;;19.09;100.00
7614;BME280;3848;42.016;23.098;2023-06-10T04:54:06;96666.34;;;19.09;100.00
7614;BME280;3848;42.016;23.098;2023-06-10T04:56:33;96668.84;;;19.10;100.00
7614;BME280;3848;42.016;23.098;2023-06-10T04:59:00;96676.47;;;19.12;100.00
7614;BME280;3848;42.016;23.098;2023-06-10T05:01:27;96668.69;;;19.13;100.00
7614;BME280;3848;42.016;23.098;2023-06-10T05:03:55;96665.16;;;19.16;100.00
7614;BME280;3848;42.016;23.098;2023-06-10T05:06:22;96671.72;;;19.22;100.00
7614;BME280;3848;42.016;23.098;2023-06-10T05:08:49;96665.91;;;19.18;100.00
7614;BME280;3848;42.016;23.098;2023-06-10T05:11:15;96673.47;;;19.21;100.00
7614;BME280;3848;42.016;23.098;2023-06-10T05:13:42;96670.72;;;19.24;100.00
7614;BME280;3848;42.016;23.098;2023-06-10T05:16:09;96671.06;;;19.18;100.00
7614;BME280;3848;42.016;23.098;2023-06-10T05:18:37;96667.31;;;19.24;100.00
7614;BME280;3848;42.016;23.098;2023-06-10T05:21:05;96661.03;;;19.29;100.00
7614;BME280;3848;42.016;23.098;2023-06-10T05:23:32;96659.13;;;19.33;100.00
7614;BME280;3848;42.016;23.098;2023-06-10T05:26:00;96646.06;;;19.36;100.00
7614;BME280;3848;42.016;23.098;2023-06-10T05:28:26;96646.47;;;19.45;100.00
7614;BME280;3848;42.016;23.098;2023-06-10T05:30:53;96650.88;;;19.61;100.00
7614;BME280;3848;42.016;23.098;2023-06-10T05:33:20;96645.22;;;19.70;100.00
7614;BME280;3848;42.016;23.098;2023-06-10T05:35:47;96644.66;;;19.81;100.00
7614;BME280;3848;42.016;23.098;2023-06-10T05:38:15;96643.91;;;19.94;100.00
7614;BME280;3848;42.016;23.098;2023-06-10T05:40:42;96645.28;;;20.01;100.00
7614;BME280;3848;42.016;23.098;2023-06-10T05:43:09;96643.94;;;20.10;100.00
7614;BME280;3848;42.016;23.098;2023-06-10T05:45:37;96639.28;;;20.17;100.00
7614;BME280;3848;42.016;23.098;2023-06-10T05:48:05;96648.28;;;20.25;100.00
7614;BME280;3848;42.016;23.098;2023-06-10T05:50:33;96652.94;;;20.34;100.00
7614;BME280;3848;42.016;23.098;2023-06-10T05:53:04;96652.22;;;20.48;100.00
7614;BME280;3848;42.016;23.098;2023-06-10T05:55:33;96649.72;;;20.62;100.00
7614;BME280;3848;42.016;23.098;2023-06-10T05:58:01;96650.00;;;20.72;100.00
7614;BME280;3848;42.016;23.098;2023-06-10T06:00:28;96643.84;;;20.75;100.00
7614;BME280;3848;42.016;23.098;2023-06-10T06:02:55;96653.41;;;20.88;100.00
7614;BME280;3848;42.016;23.098;2023-06-10T06:05:22;96650.38;;;20.96;100.00
7614;BME280;3848;42.016;23.098;2023-06-10T06:07:49;96650.09;;;21.00;100.00
7614;BME280;3848;42.016;23.098;2023-06-10T06:10:17;96648.34;;;21.01;100.00
7614;BME280;3848;42.016;23.098;2023-06-10T06:12:45;96648.84;;;21.08;100.00
7614;BME280;3848;42.016;23.098;2023-06-10T06:15:12;96644.06;;;21.16;100.00
7614;BME280;3848;42.016;23.098;2023-06-10T06:17:39;96645.31;;;21.24;100.00
7614;BME280;3848;42.016;23.098;2023-06-10T06:20:07;96644.59;;;21.37;100.00
7614;BME280;3848;42.016;23.098;2023-06-10T06:22:34;96648.22;;;21.48;100.00
7614;BME280;3848;42.016;23.098;2023-06-10T06:25:01;96637.13;;;21.60;100.00
7614;BME280;3848;42.016;23.098;2023-06-10T06:27:28;96639.25;;;21.68;100.00
7614;BME280;3848;42.016;23.098;2023-06-10T06:29:56;96640.81;;;21.85;100.00
7614;BME280;3848;42.016;23.098;2023-06-10T06:32:23;96639.53;;;22.06;100.00
7614;BME280;3848;42.016;23.098;2023-06-10T06:34:51;96635.44;;;22.16;100.00
7614;BME280;3848;42.016;23.098;2023-06-10T06:37:20;96637.19;;;22.30;100.00
7614;BME280;3848;42.016;23.098;2023-06-10T06:39:47;96632.25;;;22.40;100.00
7614;BME280;3848;42.016;23.098;2023-06-10T06:42:14;96617.34;;;22.43;100.00
7614;BME280;3848;42.016;23.098;2023-06-10T06:44:41;96633.38;;;22.63;100.00
7614;BME280;3848;42.016;23.098;2023-06-10T06:47:09;96618.22;;;22.57;100.00
7614;BME280;3848;42.016;23.098;2023-06-10T06:49:36;96618.66;;;22.63;100.00
7614;BME280;3848;42.016;23.098;2023-06-10T06:52:04;96613.28;;;22.66;100.00
7614;BME280;3848;42.016;23.098;2023-06-10T06:54:31;96616.91;;;22.64;100.00
7614;BME280;3848;42.016;23.098;2023-06-10T06:56:58;96614.91;;;22.81;100.00
7614;BME280;3848;42.016;23.098;2023-06-10T06:59:24;96533.03;;;22.39;100.00
7614;BME280;3848;42.016;23.098;2023-06-10T07:01:51;96610.88;;;22.90;100.00
7614;BME280;3848;42.016;23.098;2023-06-10T07:04:20;96601.44;;;22.89;100.00
7614;BME280;3848;42.016;23.098;2023-06-10T07:06:48;96608.22;;;23.04;100.00
7614;BME280;3848;42.016;23.098;2023-06-10T07:09:14;96602.19;;;23.04;100.00
7614;BME280;3848;42.016;23.098;2023-06-10T07:11:41;96605.97;;;23.13;100.00
7614;BME280;3848;42.016;23.098;2023-06-10T07:14:08;96597.25;;;23.14;100.00
7614;BME280;3848;42.016;23.098;2023-06-10T07:16:35;96603.88;;;23.18;100.00
7614;BME280;3848;42.016;23.098;2023-06-10T07:19:02;96600.34;;;23.19;100.00
7614;BME280;3848;42.016;23.098;2023-06-10T07:21:31;96599.63;;;23.17;100.00
7614;BME280;3848;42.016;23.098;2023-06-10T07:23:58;96593.19;;;23.22;100.00
7614;BME280;3848;42.016;23.098;2023-06-10T07:26:25;96597.25;;;23.39;100.00
7614;BME280;3848;42.016;23.098;2023-06-10T07:28:52;96601.69;;;23.50;100.00
7614;BME280;3848;42.016;23.098;2023-06-10T07:31:18;96596.97;;;23.56;100.00
7614;BME280;3848;42.016;23.098;2023-06-10T07:33:46;96584.50;;;23.61;100.00
7614;BME280;3848;42.016;23.098;2023-06-10T07:36:13;96590.19;;;23.79;100.00
7614;BME280;3848;42.016;23.098;2023-06-10T07:38:41;96588.19;;;23.95;100.00
7614;BME280;3848;42.016;23.098;2023-06-10T07:41:08;96590.22;;;24.03;100.00
7614;BME280;3848;42.016;23.098;2023-06-10T07:43:36;96536.56;;;23.91;100.00
7614;BME280;3848;42.016;23.098;2023-06-10T07:46:03;96583.81;;;24.32;100.00
7614;BME280;3848;42.016;23.098;2023-06-10T07:48:30;96583.66;;;24.47;100.00
7614;BME280;3848;42.016;23.098;2023-06-10T07:50:57;96578.59;;;24.56;100.00
7614;BME280;3848;42.016;23.098;2023-06-10T07:53:24;96570.84;;;24.68;100.00
7614;BME280;3848;42.016;23.098;2023-06-10T07:55:53;96559.41;;;24.70;100.00
7614;BME280;3848;42.016;23.098;2023-06-10T07:58:20;96557.56;;;24.83;100.00
7614;BME280;3848;42.016;23.098;2023-06-10T08:00:47;96550.72;;;24.93;100.00
7614;BME280;3848;42.016;23.098;2023-06-10T08:03:14;96554.34;;;25.15;100.00
7614;BME280;3848;42.016;23.098;2023-06-10T08:05:41;96530.09;;;25.14;100.00
7614;BME280;3848;42.016;23.098;2023-06-10T08:08:08;96558.97;;;25.22;100.00
7614;BME280;3848;42.016;23.098;2023-06-10T08:10:35;96557.44;;;25.31;100.00
7614;BME280;3848;42.016;23.098;2023-06-10T08:13:03;96555.56;;;25.44;100.00
7614;BME280;3848;42.016;23.098;2023-06-10T08:15:30;96566.19;;;25.52;100.00
7614;BME280;3848;42.016;23.098;2023-06-10T08:17:57;96560.28;;;25.62;100.00
7614;BME280;3848;42.016;23.098;2023-06-10T08:20:24;96552.94;;;25.67;100.00
7614;BME280;3848;42.016;23.098;2023-06-10T08:22:51;96556.50;;;25.66;100.00
7614;BME280;3848;42.016;23.098;2023-06-10T08:25:18;96549.53;;;25.77;100.00
7614;BME280;3848;42.016;23.098;2023-06-10T08:27:46;96551.00;;;26.02;100.00
7614;BME280;3848;42.016;23.098;2023-06-10T08:30:15;96548.25;;;26.26;100.00
7614;BME280;3848;42.016;23.098;2023-06-10T08:32:42;96541.22;;;26.49;100.00
7614;BME280;3848;42.016;23.098;2023-06-10T08:35:08;96540.03;;;26.74;100.00
7614;BME280;3848;42.016;23.098;2023-06-10T08:37:35;96541.63;;;26.86;99.09
7614;BME280;3848;42.016;23.098;2023-06-10T08:40:02;96544.81;;;26.90;100.00
7614;BME280;3848;42.016;23.098;2023-06-10T08:42:33;96535.16;;;27.01;100.00
7614;BME280;3848;42.016;23.098;2023-06-10T08:45:04;96539.13;;;27.06;100.00
7614;BME280;3848;42.016;23.098;2023-06-10T08:47:33;96524.31;;;27.06;100.00
7614;BME280;3848;42.016;23.098;2023-06-10T08:50:03;96523.78;;;27.33;100.00
7614;BME280;3848;42.016;23.098;2023-06-10T08:52:36;96521.06;;;27.44;88.80
7614;BME280;3848;42.016;23.098;2023-06-10T08:55:04;96509.78;;;27.34;97.51
7614;BME280;3848;42.016;23.098;2023-06-10T08:57:53;96502.38;;;27.39;96.17
7614;BME280;3848;42.016;23.098;2023-06-10T09:00:20;96509.91;;;27.63;100.00
7614;BME280;3848;42.016;23.098;2023-06-10T09:02:50;96512.97;;;27.87;92.74
7614;BME280;3848;42.016;23.098;2023-06-10T09:05:17;96509.59;;;28.06;93.47
7614;BME280;3848;42.016;23.098;2023-06-10T09:07:46;96508.81;;;28.35;99.25
7614;BME280;3848;42.016;23.098;2023-06-10T09:10:14;96506.63;;;28.59;90.18
7614;BME280;3848;42.016;23.098;2023-06-10T09:12:41;96496.16;;;28.59;77.04
7614;BME280;3848;42.016;23.098;2023-06-10T09:15:09;96480.00;;;28.73;90.22
7614;BME280;3848;42.016;23.098;2023-06-10T09:17:37;96478.47;;;29.00;85.54
7614;BME280;3848;42.016;23.098;2023-06-10T09:20:08;96480.88;;;29.21;89.80
7614;BME280;3848;42.016;23.098;2023-06-10T09:22:35;96477.16;;;29.60;80.74
7614;BME280;3848;42.016;23.098;2023-06-10T09:25:03;96479.38;;;29.83;67.18
7614;BME280;3848;42.016;23.098;2023-06-10T09:27:30;96477.59;;;30.01;74.52
7614;BME280;3848;42.016;23.098;2023-06-10T09:29:58;96469.06;;;29.99;67.09
7614;BME280;3848;42.016;23.098;2023-06-10T09:32:25;96466.97;;;30.02;74.90
7614;BME280;3848;42.016;23.098;2023-06-10T09:34:53;96473.03;;;29.75;67.67
7614;BME280;3848;42.016;23.098;2023-06-10T09:37:22;96468.97;;;29.46;75.73
7614;BME280;3848;42.016;23.098;2023-06-10T09:40:03;96466.25;;;29.28;70.78
7614;BME280;3848;42.016;23.098;2023-06-10T09:42:32;96460.03;;;29.29;80.66
7614;BME280;3848;42.016;23.098;2023-06-10T09:45:01;96459.97;;;29.48;77.86
7614;BME280;3848;42.016;23.098;2023-06-10T09:47:28;96451.03;;;29.68;79.61
7614;BME280;3848;42.016;23.098;2023-06-10T09:49:55;96436.91;;;29.97;79.67
7614;BME280;3848;42.016;23.098;2023-06-10T09:52:24;96441.19;;;30.33;73.52
7614;BME280;3848;42.016;23.098;2023-06-10T09:54:51;96432.69;;;30.75;71.39
7614;BME280;3848;42.016;23.098;2023-06-10T09:57:18;96425.75;;;31.00;63.96
7614;BME280;3848;42.016;23.098;2023-06-10T09:59:45;96428.63;;;31.15;61.82
7614;BME280;3848;42.016;23.098;2023-06-10T10:02:16;96425.13;;;31.40;61.26
7614;BME280;3848;42.016;23.098;2023-06-10T10:04:43;96422.25;;;31.60;61.84
7614;BME280;3848;42.016;23.098;2023-06-10T10:07:10;96416.84;;;31.61;59.37
7614;BME280;3848;42.016;23.098;2023-06-10T10:09:39;96415.34;;;31.50;57.67
7614;BME280;3848;42.016;23.098;2023-06-10T10:12:10;96411.34;;;31.30;59.22
7614;BME280;3848;42.016;23.098;2023-06-10T10:14:38;96415.44;;;31.24;61.09
7614;BME280;3848;42.016;23.098;2023-06-10T10:17:08;96400.34;;;31.01;57.36
7614;BME280;3848;42.016;23.098;2023-06-10T10:19:40;96405.56;;;31.01;57.13
7614;BME280;3848;42.016;23.098;2023-06-10T10:22:15;96404.56;;;30.93;55.96
7614;BME280;3848;42.016;23.098;2023-06-10T10:24:49;96405.03;;;30.89;57.59
7614;BME280;3848;42.016;23.098;2023-06-10T10:27:18;96404.84;;;30.82;54.84
7614;BME280;3848;42.016;23.098;2023-06-10T10:29:47;96405.16;;;30.79;53.23
7614;BME280;3848;42.016;23.098;2023-06-10T10:32:16;96399.91;;;31.13;60.56
7614;BME280;3848;42.016;23.098;2023-06-10T10:34:49;96396.63;;;31.45;54.51
7614;BME280;3848;42.016;23.098;2023-06-10T10:37:17;96382.19;;;31.49;52.62
7614;BME280;3848;42.016;23.098;2023-06-10T10:39:47;96386.53;;;31.75;53.38
7614;BME280;3848;42.016;23.098;2023-06-10T10:42:14;96385.16;;;31.71;51.43
7614;BME280;3848;42.016;23.098;2023-06-10T10:44:42;96378.97;;;32.04;50.32
7614;BME280;3848;42.016;23.098;2023-06-10T10:47:10;96375.03;;;32.41;49.63
7614;BME280;3848;42.016;23.098;2023-06-10T10:49:37;96367.31;;;32.56;49.90
7614;BME280;3848;42.016;23.098;2023-06-10T10:52:11;96369.72;;;32.73;49.79
7614;BME280;3848;42.016;23.098;2023-06-10T10:54:43;96383.38;;;32.77;48.82
7614;BME280;3848;42.016;23.098;2023-06-10T10:57:13;96380.59;;;32.70;46.11
7614;BME280;3848;42.016;23.098;2023-06-10T10:59:45;96356.63;;;32.49;46.55
7614;BME280;3848;42.016;23.098;2023-06-10T11:02:16;96367.63;;;32.53;48.34
7614;BME280;3848;42.016;23.098;2023-06-10T11:04:45;96371.75;;;32.47;49.18
7614;BME280;3848;42.016;23.098;2023-06-10T11:07:12;96372.38;;;32.57;48.56
7614;BME280;3848;42.016;23.098;2023-06-10T11:09:57;96362.81;;;32.81;46.04
7614;BME280;3848;42.016;23.098;2023-06-10T11:12:26;96359.84;;;32.92;46.52
7614;BME280;3848;42.016;23.098;2023-06-10T11:15:06;96360.03;;;32.66;48.72
7614;BME280;3848;42.016;23.098;2023-06-10T11:17:33;96361.44;;;32.29;45.55
7614;BME280;3848;42.016;23.098;2023-06-10T11:20:00;96358.28;;;32.50;48.43
7614;BME280;3848;42.016;23.098;2023-06-10T11:22:26;96343.34;;;32.34;46.56
7614;BME280;3848;42.016;23.098;2023-06-10T11:24:53;96353.66;;;32.44;45.92
7614;BME280;3848;42.016;23.098;2023-06-10T11:27:21;96348.38;;;32.60;47.87
7614;BME280;3848;42.016;23.098;2023-06-10T11:29:58;96353.50;;;32.54;47.32
7614;BME280;3848;42.016;23.098;2023-06-10T11:32:30;96345.69;;;32.77;49.61
7614;BME280;3848;42.016;23.098;2023-06-10T11:34:57;96348.03;;;33.19;48.33
7614;BME280;3848;42.016;23.098;2023-06-10T11:37:24;96340.53;;;33.30;46.96
7614;BME280;3848;42.016;23.098;2023-06-10T11:39:52;96350.28;;;33.61;47.60
7614;BME280;3848;42.016;23.098;2023-06-10T11:42:20;96334.91;;;33.42;46.48
7614;BME280;3848;42.016;23.098;2023-06-10T11:44:48;96339.06;;;33.36;47.92
7614;BME280;3848;42.016;23.098;2023-06-10T11:47:16;96347.66;;;33.22;48.32
7614;BME280;3848;42.016;23.098;2023-06-10T11:49:43;96346.69;;;32.67;49.44
7614;BME280;3848;42.016;23.098;2023-06-10T11:52:10;96329.53;;;32.32;51.32
7614;BME280;3848;42.016;23.098;2023-06-10T11:54:38;96334.91;;;32.23;49.85
7614;BME280;3848;42.016;23.098;2023-06-10T11:57:05;96347.28;;;32.30;52.11
7614;BME280;3848;42.016;23.098;2023-06-10T11:59:33;96343.66;;;31.99;52.60
7614;BME280;3848;42.016;23.098;2023-06-10T12:02:00;96335.44;;;31.85;52.31
7614;BME280;3848;42.016;23.098;2023-06-10T12:04:29;96350.31;;;31.44;53.96
7614;BME280;3848;42.016;23.098;2023-06-10T12:06:55;96345.19;;;31.43;57.18
7614;BME280;3848;42.016;23.098;2023-06-10T12:09:24;96347.69;;;31.52;54.89
7614;BME280;3848;42.016;23.098;2023-06-10T12:11:52;96341.84;;;31.75;55.34
7614;BME280;3848;42.016;23.098;2023-06-10T12:14:50;96336.22;;;31.53;54.04
7614;BME280;3848;42.016;23.098;2023-06-10T12:17:19;96344.09;;;31.45;56.14
7614;BME280;3848;42.016;23.098;2023-06-10T12:19:48;96337.03;;;31.54;54.44
7614;BME280;3848;42.016;23.098;2023-06-10T12:22:15;96328.78;;;31.41;53.95
7614;BME280;3848;42.016;23.098;2023-06-10T12:24:45;96327.63;;;31.43;53.13
7614;BME280;3848;42.016;23.098;2023-06-10T12:27:12;96341.13;;;31.48;51.25
7614;BME280;3848;42.016;23.098;2023-06-10T12:29:38;96343.28;;;31.61;50.72
7614;BME280;3848;42.016;23.098;2023-06-10T12:32:06;96336.50;;;31.42;49.89
7614;BME280;3848;42.016;23.098;2023-06-10T12:34:35;96350.94;;;31.30;47.40
7614;BME280;3848;42.016;23.098;2023-06-10T12:37:06;96332.72;;;30.86;48.81
7614;BME280;3848;42.016;23.098;2023-06-10T12:39:33;96343.56;;;30.91;50.56
7614;BME280;3848;42.016;23.098;2023-06-10T12:42:01;96349.88;;;30.81;49.03
7614;BME280;3848;42.016;23.098;2023-06-10T12:44:29;96340.38;;;30.54;49.46
7614;BME280;3848;42.016;23.098;2023-06-10T12:46:56;96337.66;;;30.38;49.71
7614;BME280;3848;42.016;23.098;2023-06-10T12:49:23;96338.09;;;30.25;51.62
7614;BME280;3848;42.016;23.098;2023-06-10T12:51:50;96331.94;;;30.16;54.22
7614;BME280;3848;42.016;23.098;2023-06-10T12:54:18;96323.75;;;30.63;56.33
7614;BME280;3848;42.016;23.098;2023-06-10T12:56:45;96320.91;;;30.90;52.37
7614;BME280;3848;42.016;23.098;2023-06-10T12:59:12;96313.81;;;31.17;50.86
7614;BME280;3848;42.016;23.098;2023-06-10T13:01:39;96324.50;;;31.32;49.45
7614;BME280;3848;42.016;23.098;2023-06-10T13:04:06;96337.09;;;31.20;49.37
7614;BME280;3848;42.016;23.098;2023-06-10T13:06:33;96328.63;;;31.42;49.15